createdAt,value
2022-09-20T00:01:07.748Z,101107.38
2022-09-20T00:03:38.197Z,101101.88
2022-09-20T00:06:07.378Z,101113.56
2022-09-20T00:08:35.263Z,101110.03
2022-09-20T00:11:03.508Z,101113.16
2022-09-20T00:13:31.750Z,101113.50
2022-09-20T00:16:00.238Z,101114.66
2022-09-20T00:18:28.441Z,101116.81
2022-09-20T00:20:57.364Z,101110.28
2022-09-20T00:23:25.310Z,101115.31
2022-09-20T00:25:57.634Z,101119.47
2022-09-20T00:28:25.923Z,101109.97
2022-09-20T00:30:54.598Z,101114.31
2022-09-20T00:33:22.735Z,101113.63
2022-09-20T00:35:49.417Z,101110.63
2022-09-20T00:38:18.580Z,101117.84
2022-09-20T00:40:46.280Z,101115.97
2022-09-20T00:43:16.597Z,101116.66
2022-09-20T00:45:48.049Z,101121.50
2022-09-20T00:48:22.379Z,101116.63
2022-09-20T00:50:55.152Z,101120.28
2022-09-20T00:53:28.219Z,101117.94
2022-09-20T00:55:59.233Z,101116.56
2022-09-20T00:58:29.970Z,101111.78
2022-09-20T01:00:58.901Z,101116.94
2022-09-20T01:03:31.654Z,101118.44
2022-09-20T01:06:02.354Z,101114.94
2022-09-20T01:08:33.262Z,101111.13
2022-09-20T01:11:01.096Z,101113.63
2022-09-20T01:13:28.915Z,101116.31
2022-09-20T01:15:58.987Z,101115.09
2022-09-20T01:18:27.975Z,101117.94
2022-09-20T01:20:56.939Z,101119.94
2022-09-20T01:23:48.061Z,101120.25
2022-09-20T01:26:56.024Z,101123.75
2022-09-20T01:29:44.453Z,101126.41
2022-09-20T01:32:14.698Z,101121.47
2022-09-20T01:34:47.351Z,101120.28
2022-09-20T01:37:20.578Z,101120.97
2022-09-20T01:39:56.754Z,101119.28
2022-09-20T01:42:32.909Z,101113.94
2022-09-20T01:45:06.167Z,101113.25
2022-09-20T01:47:39.534Z,101111.53
2022-09-20T01:50:23.031Z,101113.56
2022-09-20T01:53:06.882Z,101114.22
2022-09-20T01:56:06.790Z,101122.56
2022-09-20T01:59:24.212Z,101113.53
2022-09-20T02:02:14.876Z,101118.19
2022-09-20T02:05:11.359Z,101119.31
2022-09-20T02:07:56.747Z,101124.31
2022-09-20T02:10:47.209Z,101128.84
2022-09-20T02:13:29.416Z,101130.16
2022-09-20T02:16:20.913Z,101124.31
2022-09-20T02:19:18.446Z,101123.09
2022-09-20T02:21:52.142Z,101129.59
2022-09-20T02:24:29.629Z,101126.34
2022-09-20T02:27:10.463Z,101123.34
2022-09-20T02:29:47.428Z,101121.13
2022-09-20T02:32:34.185Z,101115.59
2022-09-20T02:35:36.654Z,101119.94
2022-09-20T02:38:19.581Z,101120.78
2022-09-20T02:41:01.846Z,101126.94
2022-09-20T02:43:36.492Z,101128.72
2022-09-20T02:46:11.625Z,101120.16
2022-09-20T02:48:46.679Z,101127.19
2022-09-20T02:51:22.816Z,101126.50
2022-09-20T02:54:00.756Z,101134.78
2022-09-20T02:56:35.774Z,101136.25
2022-09-20T02:59:10.603Z,101130.84
2022-09-20T03:01:48.853Z,101137.19
2022-09-20T03:04:32.095Z,101140.47
2022-09-20T03:07:06.935Z,101135.44
2022-09-20T03:09:43.078Z,101132.25
2022-09-20T03:12:27.497Z,101135.50
2022-09-20T03:15:06.834Z,101134.66
2022-09-20T03:17:48.375Z,101138.56
2022-09-20T03:20:31.190Z,101146.16
2022-09-20T03:23:11.375Z,101134.66
2022-09-20T03:25:59.000Z,101137.66
2022-09-20T03:28:39.587Z,101156.91
2022-09-20T03:31:24.088Z,101150.91
2022-09-20T03:34:03.084Z,101147.31
2022-09-20T03:36:49.432Z,101152.94
2022-09-20T03:39:40.770Z,101153.94
2022-09-20T03:42:20.543Z,101148.03
2022-09-20T03:45:17.013Z,101145.84
2022-09-20T03:48:00.669Z,101145.84
2022-09-20T03:50:46.270Z,101150.03
2022-09-20T03:53:32.006Z,101142.19
2022-09-20T03:56:22.561Z,101142.19
2022-09-20T03:59:12.196Z,101136.56
2022-09-20T04:02:05.392Z,101135.19
2022-09-20T04:04:41.572Z,101141.34
2022-09-20T04:07:20.280Z,101133.50
2022-09-20T04:10:02.131Z,101134.50
2022-09-20T04:12:36.666Z,101140.38
2022-09-20T04:15:20.811Z,101143.88
2022-09-20T04:17:55.557Z,101146.13
2022-09-20T04:20:31.998Z,101148.81
2022-09-20T04:23:06.573Z,101159.47
2022-09-20T04:25:43.981Z,101154.44
2022-09-20T04:28:18.476Z,101166.38
2022-09-20T04:30:46.577Z,101164.13
2022-09-20T04:33:21.399Z,101169.31
2022-09-20T04:36:19.728Z,101170.06
2022-09-20T04:38:54.622Z,101161.94
2022-09-20T04:41:43.217Z,101171.22
2022-09-20T04:44:32.785Z,101167.25
2022-09-20T04:47:21.003Z,101163.91
2022-09-20T04:50:24.104Z,101168.66
2022-09-20T04:53:19.006Z,101174.41
2022-09-20T04:55:56.943Z,101175.16
2022-09-20T04:58:39.420Z,101176.25
2022-09-20T05:01:39.814Z,101175.03
2022-09-20T05:04:59.805Z,101183.72
2022-09-20T05:08:21.813Z,101181.34
2022-09-20T05:11:42.253Z,101182.72
2022-09-20T05:14:26.130Z,101196.72
2022-09-20T05:17:14.734Z,101193.91
2022-09-20T05:20:01.418Z,101190.28
2022-09-20T05:22:57.932Z,101208.50
2022-09-20T05:25:56.419Z,101199.31
2022-09-20T05:28:31.467Z,101195.69
2022-09-20T05:31:03.989Z,101202.53
2022-09-20T05:33:40.941Z,101201.97
2022-09-20T05:36:18.248Z,101196.97
2022-09-20T05:38:50.749Z,101194.13
2022-09-20T05:41:24.754Z,101199.22
2022-09-20T05:43:59.476Z,101201.16
2022-09-20T05:46:36.284Z,101202.41
2022-09-20T05:49:13.108Z,101209.56
2022-09-20T05:51:58.189Z,101212.06
2022-09-20T05:54:44.994Z,101209.09
2022-09-20T05:57:25.513Z,101211.63
2022-09-20T06:00:02.804Z,101218.16
2022-09-20T06:02:42.467Z,101214.22
2022-09-20T06:05:16.740Z,101224.13
2022-09-20T06:08:02.354Z,101220.56
2022-09-20T06:10:47.184Z,101218.47
2022-09-20T06:13:33.969Z,101218.06
2022-09-20T06:16:04.395Z,101220.72
2022-09-20T06:18:37.692Z,101228.44
2022-09-20T06:21:19.390Z,101229.41
2022-09-20T06:23:47.046Z,101226.84
2022-09-20T06:26:18.699Z,101237.03
2022-09-20T06:28:50.225Z,101236.59
2022-09-20T06:31:18.301Z,101234.56
2022-09-20T06:33:51.954Z,101236.31
2022-09-20T06:36:55.472Z,101230.81
2022-09-20T06:39:50.841Z,101242.84
2022-09-20T06:42:18.601Z,101237.38
2022-09-20T06:44:47.364Z,101237.88
2022-09-20T06:47:16.230Z,101237.31
2022-09-20T06:49:46.950Z,101243.47
2022-09-20T06:52:17.855Z,101238.66
2022-09-20T06:54:46.458Z,101241.72
2022-09-20T06:57:16.940Z,101234.56
2022-09-20T06:59:45.106Z,101241.25
2022-09-20T07:02:12.837Z,101238.81
2022-09-20T07:04:40.441Z,101232.88
2022-09-20T07:07:09.951Z,101234.91
2022-09-20T07:09:38.859Z,101238.13
2022-09-20T07:12:12.360Z,101241.47
2022-09-20T07:14:39.950Z,101241.00
2022-09-20T07:17:07.686Z,101233.34
2022-09-20T07:19:36.725Z,101243.19
2022-09-20T07:22:04.377Z,101243.44
2022-09-20T07:24:32.250Z,101244.81
2022-09-20T07:27:03.468Z,101245.91
2022-09-20T07:29:31.378Z,101243.66
2022-09-20T07:31:59.018Z,101245.38
2022-09-20T07:34:27.190Z,101245.72
2022-09-20T07:36:54.781Z,101242.28
2022-09-20T07:39:22.425Z,101246.13
2022-09-20T07:41:51.169Z,101250.13
2022-09-20T07:44:24.810Z,101245.47
2022-09-20T07:46:53.867Z,101254.50
2022-09-20T07:49:21.987Z,101258.16
2022-09-20T07:51:49.906Z,101263.50
2022-09-20T07:54:18.186Z,101275.56
2022-09-20T07:56:46.122Z,101264.59
2022-09-20T07:59:14.762Z,101276.97
2022-09-20T08:01:44.138Z,101269.75
2022-09-20T08:04:12.265Z,101269.75
2022-09-20T08:06:41.386Z,101275.78
2022-09-20T08:09:11.259Z,101271.13
2022-09-20T08:11:40.039Z,101277.16
2022-09-20T08:14:09.369Z,101275.97
2022-09-20T08:16:40.082Z,101280.34
2022-09-20T08:19:11.295Z,101283.38
2022-09-20T08:21:39.710Z,101279.91
2022-09-20T08:24:07.742Z,101281.94
2022-09-20T08:26:37.057Z,101292.72
2022-09-20T08:29:06.032Z,101287.56
2022-09-20T08:31:36.903Z,101290.22
2022-09-20T08:34:06.925Z,101289.56
2022-09-20T08:36:38.210Z,101286.41
2022-09-20T08:41:56.768Z,101275.03
2022-09-20T08:44:34.790Z,101284.03
2022-09-20T08:47:09.858Z,101290.06
2022-09-20T08:49:40.527Z,101282.72
2022-09-20T08:52:17.158Z,101285.63
2022-09-20T08:54:44.936Z,101281.13
2022-09-20T08:57:16.801Z,101289.06
2022-09-20T08:59:44.988Z,101281.75
2022-09-20T09:02:17.420Z,101279.25
2022-09-20T09:04:46.135Z,101280.91
2022-09-20T09:07:19.751Z,101278.75
2022-09-20T09:09:49.509Z,101287.00
2022-09-20T09:12:22.822Z,101290.22
2022-09-20T09:14:55.054Z,101287.16
2022-09-20T09:17:27.288Z,101282.00
2022-09-20T09:19:57.601Z,101281.16
2022-09-20T09:22:36.764Z,101278.66
2022-09-20T09:25:10.659Z,101284.53
2022-09-20T09:27:53.066Z,101275.81
2022-09-20T09:30:23.170Z,101276.81
2022-09-20T09:32:51.155Z,101270.53
2022-09-20T09:35:31.603Z,101276.13
2022-09-20T09:38:01.986Z,101261.41
2022-09-20T09:40:31.600Z,101265.28
2022-09-20T09:43:01.432Z,101264.66
2022-09-20T09:45:32.311Z,101265.69
2022-09-20T09:48:01.487Z,101265.50
2022-09-20T09:50:31.491Z,101265.84
2022-09-20T09:53:03.291Z,101262.00
2022-09-20T09:55:52.699Z,101256.50
2022-09-20T09:58:32.339Z,101262.94
2022-09-20T10:01:04.289Z,101261.00
2022-09-20T10:03:54.832Z,101264.22
2022-09-20T10:06:30.278Z,101265.91
2022-09-20T10:09:17.901Z,101253.69
2022-09-20T10:11:58.738Z,101270.97
2022-09-20T10:14:43.160Z,101266.81
2022-09-20T10:17:26.575Z,101267.34
2022-09-20T10:20:28.091Z,101265.38
2022-09-20T10:26:06.649Z,101253.97
2022-09-20T10:28:50.310Z,101262.38
2022-09-20T10:31:32.533Z,101244.75
2022-09-20T10:34:28.826Z,101250.28
2022-09-20T10:36:59.459Z,101248.16
2022-09-20T10:39:32.748Z,101251.03
2022-09-20T10:42:34.060Z,101246.72
2022-09-20T10:45:11.739Z,101255.78
2022-09-20T10:47:49.907Z,101268.81
2022-09-20T10:50:29.665Z,101269.78
2022-09-20T10:53:10.012Z,101272.63
2022-09-20T10:55:47.820Z,101275.47
2022-09-20T10:58:46.576Z,101280.50
2022-09-20T11:01:24.268Z,101279.16
2022-09-20T11:04:12.651Z,101276.31
2022-09-20T11:06:51.807Z,101277.66
2022-09-20T11:09:24.315Z,101280.50
2022-09-20T11:11:58.210Z,101283.00
2022-09-20T11:14:33.504Z,101271.03
2022-09-20T11:17:08.441Z,101265.03
2022-09-20T11:19:48.439Z,101265.09
2022-09-20T11:22:22.204Z,101264.66
2022-09-20T11:24:53.814Z,101270.94
2022-09-20T11:27:26.917Z,101267.19
2022-09-20T11:30:06.518Z,101275.00
2022-09-20T11:32:42.199Z,101264.09
2022-09-20T11:35:25.071Z,101274.94
2022-09-20T11:38:03.917Z,101289.59
2022-09-20T11:40:36.879Z,101311.69
2022-09-20T11:43:07.520Z,101312.44
2022-09-20T11:45:40.444Z,101314.91
2022-09-20T11:48:11.750Z,101312.47
2022-09-20T11:51:01.318Z,101317.38
2022-09-20T11:53:43.789Z,101305.94
2022-09-20T11:56:17.749Z,101302.56
2022-09-20T11:58:48.163Z,101291.97
2022-09-20T12:01:28.558Z,101291.44
2022-09-20T12:04:20.579Z,101287.25
2022-09-20T12:06:48.938Z,101279.66
2022-09-20T12:09:26.398Z,101285.41
2022-09-20T12:11:54.323Z,101284.19
2022-09-20T12:14:26.173Z,101277.22
2022-09-20T12:16:56.370Z,101272.56
2022-09-20T12:19:39.005Z,101267.50
2022-09-20T12:22:29.543Z,101264.59
2022-09-20T12:25:38.145Z,101261.94
2022-09-20T12:28:13.715Z,101262.59
2022-09-20T12:30:41.385Z,101259.63
2022-09-20T12:33:20.574Z,101258.28
2022-09-20T12:35:54.047Z,101267.94
2022-09-20T12:38:50.532Z,101256.59
2022-09-20T12:41:27.883Z,101264.97
2022-09-20T12:44:00.652Z,101263.28
2022-09-20T12:46:34.934Z,101263.81
2022-09-20T12:49:50.669Z,101274.00
2022-09-20T12:52:38.186Z,101270.19
2022-09-20T12:55:10.975Z,101275.38
2022-09-20T12:57:40.044Z,101273.41
2022-09-20T13:00:09.681Z,101280.47
2022-09-20T13:02:58.137Z,101276.44
2022-09-20T13:05:38.930Z,101273.44
2022-09-20T13:08:15.812Z,101280.47
2022-09-20T13:10:50.401Z,101283.47
2022-09-20T13:13:33.070Z,101274.09
2022-09-20T13:16:05.701Z,101270.22
2022-09-20T13:18:35.525Z,101272.41
2022-09-20T13:21:07.532Z,101272.41
2022-09-20T13:23:46.465Z,101266.22
2022-09-20T13:26:16.565Z,101273.56
2022-09-20T13:28:51.447Z,101270.22
2022-09-20T13:31:27.673Z,101267.69
2022-09-20T13:33:55.968Z,101267.91
2022-09-20T13:36:29.761Z,101270.06
2022-09-20T13:38:58.922Z,101265.41
2022-09-20T13:41:32.509Z,101258.06
2022-09-20T13:44:01.225Z,101262.72
2022-09-20T13:46:31.532Z,101262.72
2022-09-20T13:49:10.856Z,101260.72
2022-09-20T13:51:39.845Z,101255.19
2022-09-20T13:54:25.640Z,101259.88
2022-09-20T13:56:54.136Z,101254.19
2022-09-20T13:59:22.276Z,101249.34
2022-09-20T14:01:52.130Z,101246.34
2022-09-20T14:04:22.752Z,101254.38
2022-09-20T14:06:53.759Z,101254.72
2022-09-20T14:09:30.700Z,101244.53
2022-09-20T14:12:00.055Z,101244.69
2022-09-20T14:14:29.596Z,101238.50
2022-09-20T14:16:58.698Z,101234.63
2022-09-20T14:19:32.425Z,101242.00
2022-09-20T14:22:05.238Z,101240.34
2022-09-20T14:24:35.338Z,101240.50
2022-09-20T14:27:16.437Z,101249.03
2022-09-20T14:29:45.935Z,101243.34
2022-09-20T14:32:37.373Z,101244.19
2022-09-20T14:35:08.222Z,101246.22
2022-09-20T14:37:44.481Z,101238.34
2022-09-20T14:40:22.561Z,101243.00
2022-09-20T14:42:54.486Z,101242.53
2022-09-20T14:45:25.969Z,101240.69
2022-09-20T14:47:57.012Z,101240.84
2022-09-20T14:50:27.940Z,101234.97
2022-09-20T14:53:26.075Z,101240.84
2022-09-20T14:56:08.310Z,101235.13
2022-09-20T14:59:05.482Z,101233.66
2022-09-20T15:01:33.721Z,101233.31
2022-09-20T15:04:09.595Z,101233.50
2022-09-20T15:06:38.981Z,101223.63
2022-09-20T15:09:07.976Z,101235.19
2022-09-20T15:11:35.734Z,101230.63
2022-09-20T15:14:03.522Z,101225.28
2022-09-20T15:16:31.921Z,101230.31
2022-09-20T15:19:00.124Z,101225.78
2022-09-20T15:21:28.220Z,101225.94
2022-09-20T15:23:55.832Z,101219.91
2022-09-20T15:26:24.822Z,101223.28
2022-09-20T15:28:52.692Z,101221.59
2022-09-20T15:31:21.103Z,101228.63
2022-09-20T15:33:48.737Z,101221.13
2022-09-20T15:36:16.420Z,101228.47
2022-09-20T15:38:43.996Z,101228.47
2022-09-20T15:41:11.563Z,101225.97
2022-09-20T15:43:43.205Z,101228.81
2022-09-20T15:46:19.515Z,101231.69
2022-09-20T15:48:47.402Z,101220.59
2022-09-20T15:51:16.067Z,101224.09
2022-09-20T15:53:46.314Z,101232.66
2022-09-20T15:56:19.314Z,101226.63
2022-09-20T15:58:50.180Z,101223.28
2022-09-20T16:01:19.533Z,101228.47
2022-09-20T16:03:48.896Z,101228.63
2022-09-20T16:06:16.448Z,101222.44
2022-09-20T16:08:44.344Z,101232.97
2022-09-20T16:11:17.243Z,101229.31
2022-09-20T16:13:48.605Z,101227.94
2022-09-20T16:16:17.693Z,101226.47
2022-09-20T16:19:03.179Z,101243.53
2022-09-20T16:21:31.940Z,101244.38
2022-09-20T16:24:00.327Z,101239.00
2022-09-20T16:26:31.293Z,101233.31
2022-09-20T16:29:00.237Z,101238.81
2022-09-20T16:31:34.640Z,101238.66
2022-09-20T16:34:03.853Z,101242.34
2022-09-20T16:36:31.918Z,101246.84
2022-09-20T16:38:59.735Z,101241.84
2022-09-20T16:41:29.030Z,101253.72
2022-09-20T16:43:57.313Z,101247.03
2022-09-20T16:46:28.149Z,101248.03
2022-09-20T16:48:56.760Z,101251.88
2022-09-20T16:51:26.277Z,101254.72
2022-09-20T16:53:55.662Z,101256.72
2022-09-20T16:56:25.252Z,101255.56
2022-09-20T16:58:53.609Z,101261.06
2022-09-20T17:01:21.645Z,101263.06
2022-09-20T17:03:51.654Z,101259.75
2022-09-20T17:06:19.936Z,101264.25
2022-09-20T17:08:48.659Z,101265.41
2022-09-20T17:11:17.657Z,101259.22
2022-09-20T17:13:47.127Z,101272.09
2022-09-20T17:16:17.649Z,101270.44
2022-09-20T17:18:45.410Z,101272.47
2022-09-20T17:21:16.550Z,101267.41
2022-09-20T17:23:50.786Z,101277.78
2022-09-20T17:26:21.683Z,101267.38
2022-09-20T17:28:51.703Z,101279.22
2022-09-20T17:31:22.904Z,101271.53
2022-09-20T17:33:50.956Z,101266.50
2022-09-20T17:36:21.363Z,101276.38
2022-09-20T17:38:55.350Z,101273.84
2022-09-20T17:41:23.859Z,101276.69
2022-09-20T17:43:55.022Z,101273.34
2022-09-20T17:46:26.094Z,101275.00
2022-09-20T17:48:55.572Z,101277.19
2022-09-20T17:51:26.616Z,101279.00
2022-09-20T17:53:55.687Z,101282.38
2022-09-20T17:56:28.407Z,101281.84
2022-09-20T17:58:56.743Z,101292.84
2022-09-20T18:01:25.917Z,101295.38
2022-09-20T18:03:54.374Z,101296.84
2022-09-20T18:06:25.346Z,101294.88
2022-09-20T18:08:55.110Z,101294.53
2022-09-20T18:11:24.896Z,101301.06
2022-09-20T18:13:52.663Z,101311.75
2022-09-20T18:16:20.483Z,101317.94
2022-09-20T18:18:49.544Z,101312.91
2022-09-20T18:21:18.759Z,101319.94
2022-09-20T18:23:48.620Z,101320.53
2022-09-20T18:26:23.745Z,101330.75
2022-09-20T18:28:56.811Z,101332.69
2022-09-20T18:31:26.289Z,101334.53
2022-09-20T18:33:57.821Z,101344.78
2022-09-20T18:36:27.155Z,101341.56
2022-09-20T18:38:57.546Z,101347.41
2022-09-20T18:41:27.455Z,101347.41
2022-09-20T18:43:55.829Z,101345.72
2022-09-20T18:46:24.886Z,101335.47
2022-09-20T18:48:53.277Z,101352.34
2022-09-20T18:51:21.847Z,101350.22
2022-09-20T18:53:49.512Z,101348.69
2022-09-20T18:56:26.311Z,101357.00
2022-09-20T18:58:55.730Z,101367.06
2022-09-20T19:01:49.482Z,101363.00
2022-09-20T19:04:35.138Z,101364.16
2022-09-20T19:07:15.021Z,101358.94
2022-09-20T19:09:50.458Z,101359.63
2022-09-20T19:12:27.046Z,101373.69
2022-09-20T19:15:22.796Z,101380.28
2022-09-20T19:18:08.315Z,101370.06
2022-09-20T19:20:42.899Z,101379.56
2022-09-20T19:23:29.751Z,101382.03
2022-09-20T19:26:08.706Z,101386.19
2022-09-20T19:28:38.374Z,101388.66
2022-09-20T19:31:06.789Z,101393.59
2022-09-20T19:33:34.895Z,101396.69
2022-09-20T19:36:03.743Z,101402.38
2022-09-20T19:38:43.029Z,101403.38
2022-09-20T19:41:27.295Z,101405.75
2022-09-20T19:44:19.048Z,101402.25
2022-09-20T19:47:01.460Z,101414.06
2022-09-20T19:49:40.395Z,101404.28
2022-09-20T19:52:11.395Z,101406.38
2022-09-20T19:54:42.204Z,101409.19
2022-09-20T19:57:20.085Z,101411.56
2022-09-20T19:59:50.438Z,101414.22
2022-09-20T20:02:19.037Z,101419.56
2022-09-20T20:04:47.175Z,101410.31
2022-09-20T20:07:28.011Z,101412.34
2022-09-20T20:10:04.562Z,101411.88
2022-09-20T20:12:35.144Z,101418.72
2022-09-20T20:15:15.794Z,101417.50
2022-09-20T20:17:55.455Z,101410.78
2022-09-20T20:20:30.077Z,101425.25
2022-09-20T20:23:39.586Z,101418.38
2022-09-20T20:26:10.413Z,101420.75
2022-09-20T20:28:39.007Z,101422.22
2022-09-20T20:31:12.249Z,101428.38
2022-09-20T20:33:40.703Z,101431.44
2022-09-20T20:36:08.941Z,101437.91
2022-09-20T20:38:37.810Z,101432.47
2022-09-20T20:41:07.586Z,101433.22
2022-09-20T20:43:38.103Z,101429.84
2022-09-20T20:46:09.052Z,101438.25
2022-09-20T20:48:37.255Z,101441.22
2022-09-20T20:51:06.452Z,101444.47
2022-09-20T20:53:36.147Z,101452.75
2022-09-20T20:56:07.154Z,101448.38
2022-09-20T20:58:36.293Z,101444.84
2022-09-20T21:01:10.545Z,101447.97
2022-09-20T21:03:38.625Z,101449.22
2022-09-20T21:06:06.742Z,101447.50
2022-09-20T21:08:36.280Z,101454.38
2022-09-20T21:11:06.067Z,101454.97
2022-09-20T21:13:34.220Z,101451.31
2022-09-20T21:16:11.156Z,101445.19
2022-09-20T21:18:40.106Z,101447.97
2022-09-20T21:21:15.633Z,101444.06
2022-09-20T21:23:44.987Z,101450.69
2022-09-20T21:26:15.308Z,101450.78
2022-09-20T21:28:44.970Z,101450.00
2022-09-20T21:31:14.202Z,101448.91
2022-09-20T21:33:43.622Z,101449.63
2022-09-20T21:36:13.733Z,101452.28
2022-09-20T21:38:42.272Z,101451.13
2022-09-20T21:41:11.681Z,101456.78
2022-09-20T21:43:41.794Z,101456.47
2022-09-20T21:46:16.405Z,101456.91
2022-09-20T21:48:44.529Z,101452.28
2022-09-20T21:51:13.918Z,101449.19
2022-09-20T21:53:41.993Z,101454.00
2022-09-20T21:56:11.620Z,101454.28
2022-09-20T21:58:39.899Z,101455.97
2022-09-20T22:01:11.437Z,101458.50
2022-09-20T22:03:42.101Z,101454.88
2022-09-20T22:06:12.175Z,101455.84
2022-09-20T22:08:41.980Z,101454.88
2022-09-20T22:11:14.890Z,101461.28
2022-09-20T22:13:43.829Z,101457.09
2022-09-20T22:16:13.503Z,101458.50
2022-09-20T22:18:44.129Z,101463.25
2022-09-20T22:21:14.110Z,101467.44
2022-09-20T22:23:42.327Z,101467.56
2022-09-20T22:26:11.920Z,101466.84
2022-09-20T22:28:39.771Z,101456.06
2022-09-20T22:31:09.909Z,101455.97
2022-09-20T22:33:43.125Z,101455.50
2022-09-20T22:36:12.538Z,101452.00
2022-09-20T22:38:40.073Z,101464.25
2022-09-20T22:41:07.770Z,101464.53
2022-09-20T22:43:36.111Z,101461.56
2022-09-20T22:46:04.954Z,101463.84
2022-09-20T22:48:33.272Z,101464.44
2022-09-20T22:51:03.322Z,101465.94
2022-09-20T22:53:31.984Z,101467.63
2022-09-20T22:56:04.062Z,101468.34
2022-09-20T22:58:33.173Z,101473.94
2022-09-20T23:01:05.810Z,101471.47
2022-09-20T23:03:33.658Z,101471.16
2022-09-20T23:06:03.936Z,101470.34
2022-09-20T23:08:33.192Z,101468.50
2022-09-20T23:11:02.389Z,101461.91
2022-09-20T23:13:30.054Z,101466.38
2022-09-20T23:15:58.094Z,101471.44
2022-09-20T23:18:26.087Z,101470.19
2022-09-20T23:21:02.739Z,101466.50
2022-09-20T23:23:31.059Z,101460.22
2022-09-20T23:26:07.377Z,101459.81
2022-09-20T23:28:35.844Z,101460.78
2022-09-20T23:31:05.032Z,101459.38
2022-09-20T23:33:33.296Z,101459.53
2022-09-20T23:36:06.447Z,101467.78
2022-09-20T23:38:34.098Z,101466.09
2022-09-20T23:41:03.872Z,101466.09
2022-09-20T23:43:31.583Z,101464.00
2022-09-20T23:45:59.247Z,101464.69
2022-09-20T23:48:27.308Z,101463.69
2022-09-20T23:50:55.287Z,101468.88
2022-09-20T23:53:24.432Z,101465.13
2022-09-20T23:55:52.073Z,101457.97
2022-09-20T23:58:19.716Z,101459.91
